Green Bay, WI (54304)

12:35 AM CST on February 11, 2016 (GMT -0600)
Southern Ashwaubenon | | Change Station
CLOSE
Current Station
Personal Weather Station
Location: Green Bay, WI
Elevation: 643 ft
Nearby Weather Stations

Elev 643 ft 44.48 °N, 88.09 °W | Updated 14 minutes ago

Clear
Clear
2.5 °F
Feels Like 2 °F
N
0.0
Wind Variable Wind from WNW

Today
High -- | Low -- °F
--% Chance of Precip.
Yesterday
High -- | Low -- °F
Precip. -- in
Pressure 30.23 in
Visibility 10.0 miles
Clouds Overcast 3500 ft
Windchill 2 °F
Dew Point -3 °F
Humidity 76%
Rainfall 0.00 in
Snow Depth Not available.
6:58 AM 5:14 PM
Waxing Crescent, 10% visible
METAR KGRB 110553Z AUTO 29005KT 10SM OVC035 M17/M22 A3018 RMK AO2 SLP237 T11721217 11128 21189 411001189 51014
Pressure 30.23 in
Visibility 10.0 miles
Clouds Overcast 3500 ft
Windchill 2 °F
Dew Point -3 °F
Humidity 76%
Rainfall 0.00 in
Snow Depth Not available.
6:58 AM 5:14 PM
Waxing Crescent, 10% visible
METAR KGRB 110553Z AUTO 29005KT 10SM OVC035 M17/M22 A3018 RMK AO2 SLP237 T11721217 11128 21189 411001189 51014

10-Day Weather Forecast

Almanac

Astronomy

Feb. 11, 2016 Rise Set
Actual Time
Civil Twilight
Nautical Twilight
Astronomical Twilight
Moon
Length of Visible Light
Length of Day
Tomorrow will be .
, % of the Moon is Illuminated

Today's Extremes

State Highs State Lows

Community

WunderPhotos

Upload Photos

1,892,028 photos uploaded!

WunderBlog® & News

Nearby

Air Quality

  Air Quality AQ Index Pollutant
Not available.

Snow Depth

Station Depth Elevation

Earthquake Activity

City Distance Mag. Time & Date
Minimum magnitude displayed is 2.5.

Coastal Water Temperatures

Place Temperature

Stations

Nearby Weather Stations

Station Location Temp. Windchill Dew Point Humidity Wind Precip. Elev Updated Type
                   

Watches & Warnings

There are currently no watches in effect.